createdAt,value
2018-09-02T00:01:34.833Z,99.90
2018-09-02T00:04:03.330Z,99.90
2018-09-02T00:06:31.799Z,99.90
2018-09-02T00:09:00.285Z,99.90
2018-09-02T00:11:28.870Z,99.90
2018-09-02T00:13:57.358Z,99.90
2018-09-02T00:16:25.834Z,99.90
2018-09-02T00:18:54.348Z,99.90
2018-09-02T00:21:22.805Z,99.90
2018-09-02T00:23:51.281Z,99.90
2018-09-02T00:26:19.741Z,99.90
2018-09-02T00:28:48.203Z,99.90
2018-09-02T00:31:16.710Z,99.90
2018-09-02T00:33:45.172Z,99.90
2018-09-02T00:36:13.649Z,99.90
2018-09-02T00:38:42.101Z,99.90
2018-09-02T00:41:10.570Z,99.90
2018-09-02T00:43:39.017Z,99.90
2018-09-02T00:46:07.522Z,99.90
2018-09-02T00:48:35.972Z,99.90
2018-09-02T00:51:04.493Z,99.90
2018-09-02T00:53:32.988Z,99.90
2018-09-02T00:56:01.485Z,99.90
2018-09-02T00:58:30.000Z,99.90
2018-09-02T01:00:58.492Z,99.90
2018-09-02T01:03:26.950Z,99.90
2018-09-02T01:05:55.369Z,99.90
2018-09-02T01:08:23.856Z,99.90
2018-09-02T01:10:52.410Z,99.90
2018-09-02T01:13:20.973Z,99.90
2018-09-02T01:15:49.420Z,99.90
2018-09-02T01:18:18.257Z,99.90
2018-09-02T01:20:46.697Z,99.90
2018-09-02T01:23:15.181Z,99.90
2018-09-02T01:25:43.628Z,99.90
2018-09-02T01:28:12.150Z,99.90
2018-09-02T01:30:40.705Z,99.90
2018-09-02T01:33:09.797Z,99.90
2018-09-02T01:35:38.253Z,99.90
2018-09-02T01:38:06.759Z,99.90
2018-09-02T01:40:36.017Z,99.90
2018-09-02T01:43:05.113Z,99.90
2018-09-02T01:45:33.801Z,99.90
2018-09-02T01:48:02.785Z,99.90
2018-09-02T01:50:31.258Z,99.90
2018-09-02T01:52:59.737Z,99.90
2018-09-02T01:55:28.226Z,99.90
2018-09-02T01:57:56.720Z,99.90
2018-09-02T02:00:25.176Z,99.90
2018-09-02T02:02:53.652Z,99.90
2018-09-02T02:05:22.162Z,99.90
2018-09-02T02:07:50.642Z,99.90
2018-09-02T02:10:19.650Z,99.90
2018-09-02T02:12:48.117Z,99.90
2018-09-02T02:15:16.582Z,99.90
2018-09-02T02:17:45.064Z,99.90
2018-09-02T02:20:13.566Z,99.90
2018-09-02T02:22:42.021Z,99.90
2018-09-02T02:25:10.424Z,99.90
2018-09-02T02:27:38.920Z,99.90
2018-09-02T02:30:07.437Z,99.90
2018-09-02T02:32:35.969Z,99.90
2018-09-02T02:35:04.468Z,99.90
2018-09-02T02:37:32.943Z,99.90
2018-09-02T02:40:01.404Z,99.90
2018-09-02T02:42:29.862Z,99.90
2018-09-02T02:44:58.306Z,99.90
2018-09-02T02:47:26.789Z,99.90
2018-09-02T02:49:55.262Z,99.90
2018-09-02T02:52:28.135Z,99.90
2018-09-02T02:54:56.593Z,99.90
2018-09-02T02:57:25.069Z,99.90
2018-09-02T02:59:53.517Z,99.90
2018-09-02T03:02:22.017Z,99.90
2018-09-02T03:04:50.508Z,99.90
2018-09-02T03:07:18.988Z,99.90
2018-09-02T03:09:47.442Z,99.90
2018-09-02T03:12:15.916Z,99.90
2018-09-02T03:14:44.375Z,99.90
2018-09-02T03:17:12.832Z,99.90
2018-09-02T03:19:41.321Z,99.90
2018-09-02T03:22:09.801Z,99.90
2018-09-02T03:24:38.285Z,99.90
2018-09-02T03:27:06.766Z,99.90
2018-09-02T03:29:35.242Z,99.90
2018-09-02T03:32:03.739Z,99.90
2018-09-02T03:34:32.156Z,99.90
2018-09-02T03:37:00.641Z,99.90
2018-09-02T03:39:29.264Z,99.90
2018-09-02T03:41:57.728Z,99.90
2018-09-02T03:44:26.195Z,99.90
2018-09-02T03:46:54.659Z,99.90
2018-09-02T03:49:23.098Z,99.90
2018-09-02T03:51:51.529Z,99.90
2018-09-02T03:54:19.957Z,99.90
2018-09-02T03:56:48.438Z,99.90
2018-09-02T03:59:16.880Z,99.90
2018-09-02T04:01:45.354Z,99.90
2018-09-02T04:04:13.816Z,99.90
2018-09-02T04:06:43.269Z,99.90
2018-09-02T04:09:12.142Z,99.90
2018-09-02T04:11:41.146Z,99.90
2018-09-02T04:14:09.637Z,99.90
2018-09-02T04:16:38.084Z,99.90
2018-09-02T04:19:06.568Z,99.90
2018-09-02T04:21:35.129Z,99.90
2018-09-02T04:24:03.821Z,99.90
2018-09-02T04:26:32.277Z,99.90
2018-09-02T04:29:00.831Z,99.90
2018-09-02T04:31:29.315Z,99.90
2018-09-02T04:33:57.817Z,99.90
2018-09-02T04:36:26.290Z,99.90
2018-09-02T04:38:54.762Z,99.90
2018-09-02T04:41:23.325Z,99.90
2018-09-02T04:43:51.796Z,99.90
2018-09-02T04:46:20.389Z,99.90
2018-09-02T04:48:48.882Z,99.90
2018-09-02T04:51:17.401Z,99.90
2018-09-02T04:53:45.930Z,99.90
2018-09-02T04:56:14.421Z,99.90
2018-09-02T04:58:42.892Z,99.90
2018-09-02T05:01:11.397Z,99.90
2018-09-02T05:03:39.891Z,99.90
2018-09-02T05:06:08.447Z,99.90
2018-09-02T05:08:36.974Z,99.90
2018-09-02T05:11:05.536Z,99.90
2018-09-02T05:13:34.003Z,99.90
2018-09-02T05:16:02.507Z,99.90
2018-09-02T05:18:31.087Z,99.90
2018-09-02T05:20:59.564Z,99.90
2018-09-02T05:23:28.026Z,99.90
2018-09-02T05:25:56.597Z,99.90
2018-09-02T05:28:25.131Z,99.90
2018-09-02T05:30:53.654Z,99.90
2018-09-02T05:33:22.135Z,99.90
2018-09-02T05:35:50.637Z,99.90
2018-09-02T05:38:19.189Z,99.90
2018-09-02T05:40:47.665Z,99.90
2018-09-02T05:43:16.191Z,99.90
2018-09-02T05:45:44.776Z,99.90
2018-09-02T05:48:13.240Z,99.90
2018-09-02T05:50:44.946Z,99.90
2018-09-02T05:53:13.396Z,99.90
2018-09-02T05:55:41.917Z,99.90
2018-09-02T05:58:10.439Z,99.90
2018-09-02T06:00:40.303Z,99.90
2018-09-02T06:03:08.861Z,99.90
2018-09-02T06:05:37.456Z,99.90
2018-09-02T06:08:05.926Z,99.90
2018-09-02T06:10:34.474Z,99.90
2018-09-02T06:13:02.985Z,99.90
2018-09-02T06:15:31.463Z,99.90
2018-09-02T06:17:59.953Z,99.90
2018-09-02T06:20:28.461Z,99.90
2018-09-02T06:22:56.932Z,99.90
2018-09-02T06:25:25.441Z,99.90
2018-09-02T06:27:54.154Z,99.90
2018-09-02T06:30:22.595Z,99.90
2018-09-02T06:32:51.082Z,99.90
2018-09-02T06:35:20.439Z,99.90
2018-09-02T06:37:48.882Z,99.90
2018-09-02T06:40:17.457Z,99.90
2018-09-02T06:42:46.008Z,99.90
2018-09-02T06:45:14.504Z,99.90
2018-09-02T06:47:42.988Z,99.90
2018-09-02T06:50:11.588Z,99.90
2018-09-02T06:52:40.114Z,99.90
2018-09-02T06:55:08.613Z,99.90
2018-09-02T06:57:37.128Z,99.90
2018-09-02T07:00:05.801Z,99.90
2018-09-02T07:02:35.347Z,99.90
2018-09-02T07:05:04.534Z,99.90
2018-09-02T07:07:33.054Z,99.90
2018-09-02T07:10:01.562Z,99.90
2018-09-02T07:12:30.175Z,99.90
2018-09-02T07:14:58.649Z,99.90
2018-09-02T07:17:27.193Z,99.90
2018-09-02T07:19:55.711Z,99.90
2018-09-02T07:22:24.207Z,99.90
2018-09-02T07:24:52.719Z,99.90
2018-09-02T07:27:21.201Z,99.90
2018-09-02T07:29:49.686Z,99.90
2018-09-02T07:32:18.239Z,99.90
2018-09-02T07:34:46.726Z,99.90
2018-09-02T07:37:15.230Z,99.90
2018-09-02T07:39:43.752Z,99.90
2018-09-02T07:42:12.258Z,99.90
2018-09-02T07:44:40.808Z,99.90
2018-09-02T07:47:09.260Z,99.90
2018-09-02T07:49:37.861Z,99.90
2018-09-02T07:52:06.347Z,99.90
2018-09-02T07:54:35.015Z,99.90
2018-09-02T07:57:03.550Z,99.90
2018-09-02T07:59:32.143Z,99.90
2018-09-02T08:02:00.699Z,99.90
2018-09-02T08:04:29.197Z,99.90
2018-09-02T08:06:57.709Z,99.90
2018-09-02T08:09:26.183Z,99.90
2018-09-02T08:11:54.733Z,99.90
2018-09-02T08:14:23.189Z,99.90
2018-09-02T08:16:51.680Z,99.90
2018-09-02T08:19:20.151Z,99.90
2018-09-02T08:21:48.630Z,99.90
2018-09-02T08:24:17.117Z,99.90
2018-09-02T08:26:45.686Z,99.90
2018-09-02T08:29:14.058Z,99.50
2018-09-02T08:31:43.421Z,99.30
2018-09-02T08:34:11.940Z,99.30
2018-09-02T08:36:40.516Z,98.80
2018-09-02T08:39:10.636Z,98.70
2018-09-02T08:41:39.720Z,98.20
2018-09-02T08:44:08.197Z,98.70
2018-09-02T08:46:36.944Z,98.00
2018-09-02T08:49:05.614Z,98.20
2018-09-02T08:51:34.079Z,97.90
2018-09-02T08:54:02.566Z,98.30
2018-09-02T08:56:31.085Z,97.70
2018-09-02T08:58:59.598Z,97.60
2018-09-02T09:01:28.051Z,97.40
2018-09-02T09:03:56.530Z,97.30
2018-09-02T09:06:25.278Z,97.40
2018-09-02T09:08:54.107Z,97.50
2018-09-02T09:11:22.484Z,97.00
2018-09-02T09:13:50.963Z,96.90
2018-09-02T09:16:19.515Z,96.70
2018-09-02T09:18:48.002Z,96.60
2018-09-02T09:21:16.440Z,96.30
2018-09-02T09:23:44.941Z,96.00
2018-09-02T09:26:13.492Z,96.10
2018-09-02T09:28:41.949Z,96.60
2018-09-02T09:31:11.026Z,96.20
2018-09-02T09:33:39.842Z,96.00
2018-09-02T09:36:08.306Z,95.10
2018-09-02T09:38:36.801Z,94.90
2018-09-02T09:41:05.522Z,94.90
2018-09-02T09:43:33.995Z,94.90
2018-09-02T09:46:02.558Z,94.90
2018-09-02T09:48:30.979Z,95.10
2018-09-02T09:50:59.431Z,95.00
2018-09-02T09:53:27.871Z,95.50
2018-09-02T09:55:56.339Z,94.30
2018-09-02T09:58:24.869Z,94.20
2018-09-02T10:00:53.372Z,94.50
2018-09-02T10:03:22.402Z,94.80
2018-09-02T10:05:50.943Z,94.60
2018-09-02T10:08:19.342Z,93.70
2018-09-02T10:10:47.858Z,94.20
2018-09-02T10:13:16.337Z,94.10
2018-09-02T10:15:44.824Z,93.60
2018-09-02T10:18:13.449Z,93.60
2018-09-02T10:20:41.807Z,93.30
2018-09-02T10:23:10.275Z,94.10
2018-09-02T10:25:38.833Z,94.10
2018-09-02T10:28:07.289Z,93.00
2018-09-02T10:30:35.770Z,93.00
2018-09-02T10:33:04.283Z,92.80
2018-09-02T10:35:32.725Z,92.80
2018-09-02T10:38:01.185Z,93.20
2018-09-02T10:40:29.621Z,92.90
2018-09-02T10:42:58.114Z,92.30
2018-09-02T10:45:26.582Z,92.80
2018-09-02T10:47:55.054Z,91.90
2018-09-02T10:50:23.492Z,92.30
2018-09-02T10:52:51.977Z,92.00
2018-09-02T10:55:20.423Z,92.20
2018-09-02T10:57:48.893Z,91.70
2018-09-02T11:00:17.437Z,91.10
2018-09-02T11:02:45.914Z,91.30
2018-09-02T11:05:14.392Z,91.00
2018-09-02T11:07:42.937Z,91.20
2018-09-02T11:10:11.329Z,90.90
2018-09-02T11:12:39.785Z,91.10
2018-09-02T11:15:08.369Z,90.80
2018-09-02T11:17:37.187Z,90.90
2018-09-02T11:20:05.869Z,91.00
2018-09-02T11:22:36.697Z,90.70
2018-09-02T11:25:06.422Z,90.40
2018-09-02T11:27:35.503Z,88.80
2018-09-02T11:30:04.377Z,89.70
2018-09-02T11:32:34.084Z,89.20
2018-09-02T11:35:02.980Z,90.10
2018-09-02T11:37:31.846Z,89.50
2018-09-02T11:40:00.337Z,90.80
2018-09-02T11:42:28.814Z,90.00
2018-09-02T11:44:57.475Z,90.50
2018-09-02T11:47:25.843Z,90.00
2018-09-02T11:49:54.495Z,90.30
2018-09-02T11:52:22.932Z,89.60
2018-09-02T11:54:52.618Z,88.80
2018-09-02T11:57:21.750Z,88.60
2018-09-02T11:59:50.218Z,89.10
2018-09-02T12:02:18.769Z,89.20
2018-09-02T12:04:47.246Z,89.10
2018-09-02T12:07:15.703Z,88.70
2018-09-02T12:09:44.171Z,89.80
2018-09-02T12:12:12.637Z,88.60
2018-09-02T12:14:41.067Z,88.60
2018-09-02T12:17:09.532Z,88.60
2018-09-02T12:19:37.954Z,88.60
2018-09-02T12:22:06.535Z,88.40
2018-09-02T12:24:35.027Z,89.30
2018-09-02T12:27:09.861Z,89.30
2018-09-02T12:29:38.358Z,88.50
2018-09-02T12:32:06.869Z,89.20
2018-09-02T12:34:35.328Z,89.80
2018-09-02T12:37:03.835Z,90.00
2018-09-02T12:39:32.424Z,87.70
2018-09-02T12:42:00.941Z,88.00
2018-09-02T12:44:29.441Z,88.20
2018-09-02T12:46:57.883Z,87.80
2018-09-02T12:49:26.326Z,87.50
2018-09-02T12:51:54.845Z,87.60
2018-09-02T12:54:23.277Z,87.00
2018-09-02T12:56:51.759Z,87.50
2018-09-02T12:59:20.204Z,87.20
2018-09-02T13:01:48.673Z,85.90
2018-09-02T13:04:17.146Z,85.90
2018-09-02T13:06:45.703Z,86.90
2018-09-02T13:09:14.220Z,86.10
2018-09-02T13:11:49.350Z,86.70
2018-09-02T13:14:17.856Z,87.10
2018-09-02T13:16:46.341Z,87.50
2018-09-02T13:19:14.866Z,87.50
2018-09-02T13:21:43.322Z,86.30
2018-09-02T13:24:11.782Z,85.50
2018-09-02T13:26:40.283Z,85.90
2018-09-02T13:29:08.809Z,85.10
2018-09-02T13:31:37.428Z,84.60
2018-09-02T13:34:05.914Z,85.40
2018-09-02T13:36:34.447Z,85.70
2018-09-02T13:39:02.945Z,85.40
2018-09-02T13:41:31.427Z,85.90
2018-09-02T13:43:59.918Z,85.90
2018-09-02T13:46:28.423Z,86.20
2018-09-02T13:48:56.877Z,86.70
2018-09-02T13:51:25.430Z,86.10
2018-09-02T13:53:53.849Z,86.70
2018-09-02T13:56:22.469Z,86.40
2018-09-02T13:58:50.929Z,86.40
2018-09-02T14:01:19.395Z,86.50
2018-09-02T14:03:47.862Z,86.60
2018-09-02T14:06:16.310Z,87.10
2018-09-02T14:08:44.790Z,86.70
2018-09-02T14:11:18.907Z,87.40
2018-09-02T14:13:47.389Z,87.70
2018-09-02T14:16:15.857Z,87.70
2018-09-02T14:18:44.332Z,87.50
2018-09-02T14:21:12.818Z,87.30
2018-09-02T14:23:41.308Z,87.90
2018-09-02T14:26:09.759Z,87.30
2018-09-02T14:28:38.248Z,87.90
2018-09-02T14:31:06.750Z,86.70
2018-09-02T14:33:35.213Z,87.60
2018-09-02T14:36:03.693Z,86.70
2018-09-02T14:38:32.140Z,86.90
2018-09-02T14:41:00.577Z,87.00
2018-09-02T14:43:29.075Z,87.50
2018-09-02T14:45:58.633Z,87.60
2018-09-02T14:48:27.118Z,87.20
2018-09-02T14:50:55.579Z,87.20
2018-09-02T14:53:24.218Z,87.30
2018-09-02T14:55:52.675Z,87.00
2018-09-02T14:58:21.186Z,87.20
2018-09-02T15:00:49.685Z,87.40
2018-09-02T15:03:18.163Z,88.10
2018-09-02T15:05:46.594Z,88.30
2018-09-02T15:08:15.132Z,88.00
2018-09-02T15:10:43.599Z,87.40
2018-09-02T15:13:12.054Z,87.10
2018-09-02T15:15:40.541Z,87.60
2018-09-02T15:18:09.019Z,87.70
2018-09-02T15:20:37.551Z,87.90
2018-09-02T15:23:06.476Z,88.10
2018-09-02T15:25:34.940Z,87.60
2018-09-02T15:28:03.429Z,87.60
2018-09-02T15:30:31.892Z,87.50
2018-09-02T15:33:00.429Z,87.70
2018-09-02T15:35:28.905Z,88.20
2018-09-02T15:37:57.387Z,88.50
2018-09-02T15:40:25.857Z,88.40
2018-09-02T15:42:54.369Z,87.70
2018-09-02T15:45:22.865Z,88.20
2018-09-02T15:47:51.334Z,88.80
2018-09-02T15:50:19.834Z,88.10
2018-09-02T15:52:48.348Z,88.20
2018-09-02T15:55:16.799Z,87.60
2018-09-02T15:57:45.386Z,87.40
2018-09-02T16:00:13.835Z,87.20
2018-09-02T16:02:42.337Z,86.60
2018-09-02T16:05:10.818Z,87.50
2018-09-02T16:07:39.331Z,88.10
2018-09-02T16:10:07.853Z,88.10
2018-09-02T16:12:36.331Z,87.70
2018-09-02T16:15:05.065Z,88.20
2018-09-02T16:17:33.552Z,86.90
2018-09-02T16:20:02.068Z,87.50
2018-09-02T16:22:30.607Z,87.90
2018-09-02T16:24:59.081Z,87.10
2018-09-02T16:27:27.570Z,88.40
2018-09-02T16:29:55.992Z,88.10
2018-09-02T16:32:24.505Z,88.50
2018-09-02T16:34:52.993Z,88.60
2018-09-02T16:37:21.530Z,88.30
2018-09-02T16:39:50.011Z,88.30
2018-09-02T16:42:18.570Z,87.20
2018-09-02T16:44:47.072Z,87.40
2018-09-02T16:47:15.510Z,88.90
2018-09-02T16:49:43.993Z,89.20
2018-09-02T16:52:12.437Z,88.20
2018-09-02T16:54:40.937Z,87.60
2018-09-02T16:57:09.369Z,86.40
2018-09-02T16:59:40.733Z,86.10
2018-09-02T17:02:09.183Z,85.90
2018-09-02T17:04:39.861Z,85.80
2018-09-02T17:07:08.308Z,86.50
2018-09-02T17:09:36.793Z,85.40
2018-09-02T17:12:05.491Z,85.00
2018-09-02T17:14:33.844Z,85.20
2018-09-02T17:17:02.300Z,84.60
2018-09-02T17:19:33.497Z,85.00
2018-09-02T17:22:02.066Z,84.50
2018-09-02T17:24:30.614Z,85.10
2018-09-02T17:26:59.090Z,85.00
2018-09-02T17:29:27.570Z,84.60
2018-09-02T17:31:56.709Z,85.30
2018-09-02T17:34:25.164Z,85.50
2018-09-02T17:36:53.632Z,85.30
2018-09-02T17:39:22.160Z,85.80
2018-09-02T17:41:50.648Z,85.70
2018-09-02T17:44:19.096Z,85.80
2018-09-02T17:46:47.582Z,85.50
2018-09-02T17:49:16.032Z,85.90
2018-09-02T17:51:44.495Z,86.50
2018-09-02T17:54:13.005Z,86.20
2018-09-02T17:56:41.459Z,86.60
2018-09-02T17:59:09.938Z,86.60
